createdAt,value
2023-05-03T00:00:27.247Z,3.10
2023-05-03T00:02:54.757Z,2.83
2023-05-03T00:05:21.314Z,2.80
2023-05-03T00:07:47.707Z,2.87
2023-05-03T00:10:16.262Z,2.60
2023-05-03T00:12:43.825Z,2.90
2023-05-03T00:15:11.158Z,2.70
2023-05-03T00:17:37.916Z,3.23
2023-05-03T00:20:05.105Z,3.00
2023-05-03T00:22:32.315Z,3.20
2023-05-03T00:25:01.663Z,3.00
2023-05-03T00:27:28.700Z,2.83
2023-05-03T00:29:55.089Z,3.17
2023-05-03T00:32:24.865Z,3.00
2023-05-03T00:34:56.132Z,2.70
2023-05-03T00:37:23.808Z,3.30
2023-05-03T00:39:50.597Z,3.00
2023-05-03T00:42:16.995Z,2.80
2023-05-03T00:44:43.480Z,3.73
2023-05-03T00:47:10.137Z,2.97
2023-05-03T00:49:36.800Z,2.97
2023-05-03T00:52:03.280Z,3.27
2023-05-03T00:54:30.387Z,2.90
2023-05-03T00:56:56.991Z,2.90
2023-05-03T00:59:23.390Z,3.40
2023-05-03T01:01:51.489Z,3.20
2023-05-03T01:04:19.313Z,3.00
2023-05-03T01:07:07.427Z,3.30
2023-05-03T01:09:56.834Z,3.43
2023-05-03T01:12:40.500Z,3.60
2023-05-03T01:15:27.506Z,2.93
2023-05-03T01:18:07.869Z,3.83
2023-05-03T01:20:37.445Z,3.40
2023-05-03T01:23:14.813Z,3.10
2023-05-03T01:25:41.722Z,3.33
2023-05-03T01:28:08.124Z,2.80
2023-05-03T01:30:35.676Z,3.33
2023-05-03T01:33:16.968Z,3.20
2023-05-03T01:35:51.675Z,3.00
2023-05-03T01:38:18.757Z,2.87
2023-05-03T01:40:49.596Z,3.20
2023-05-03T01:43:18.122Z,3.10
2023-05-03T01:45:45.088Z,3.07
2023-05-03T01:48:15.652Z,3.17
2023-05-03T01:50:42.053Z,3.00
2023-05-03T01:53:08.703Z,3.40
2023-05-03T01:55:35.127Z,3.07
2023-05-03T01:58:01.534Z,3.33
2023-05-03T02:00:28.033Z,3.30
2023-05-03T02:02:54.532Z,2.90
2023-05-03T02:05:21.870Z,3.00
2023-05-03T02:07:48.265Z,3.03
2023-05-03T02:10:15.076Z,3.43
2023-05-03T02:12:42.539Z,3.47
2023-05-03T02:15:09.660Z,3.00
2023-05-03T02:17:36.112Z,3.00
2023-05-03T02:20:03.594Z,3.40
2023-05-03T02:22:30.287Z,3.07
2023-05-03T02:24:56.847Z,3.30
2023-05-03T02:27:23.424Z,3.00
2023-05-03T02:29:49.917Z,3.63
2023-05-03T02:32:16.310Z,3.10
2023-05-03T02:34:44.601Z,2.90
2023-05-03T02:37:11.028Z,3.17
2023-05-03T02:39:37.424Z,3.10
2023-05-03T02:42:03.804Z,2.73
2023-05-03T02:44:31.327Z,3.20
2023-05-03T02:46:59.417Z,3.20
2023-05-03T02:49:26.170Z,3.37
2023-05-03T02:51:53.079Z,3.37
2023-05-03T02:54:19.540Z,3.20
2023-05-03T02:56:45.950Z,3.40
2023-05-03T02:59:12.787Z,3.03
2023-05-03T03:01:39.215Z,3.17
2023-05-03T03:04:06.752Z,3.10
2023-05-03T03:06:33.202Z,3.70
2023-05-03T03:08:59.583Z,3.37
2023-05-03T03:11:26.799Z,3.10
2023-05-03T03:13:53.176Z,3.20
2023-05-03T03:16:19.664Z,3.17
2023-05-03T03:18:46.154Z,3.30
2023-05-03T03:21:12.608Z,3.30
2023-05-03T03:23:38.997Z,3.10
2023-05-03T03:26:06.215Z,3.17
2023-05-03T03:28:32.730Z,3.00
2023-05-03T03:30:59.138Z,3.77
2023-05-03T03:33:25.826Z,3.40
2023-05-03T03:35:52.994Z,3.83
2023-05-03T03:38:19.379Z,2.90
2023-05-03T03:40:45.774Z,3.03
2023-05-03T03:43:12.126Z,3.80
2023-05-03T03:45:38.517Z,3.23
2023-05-03T03:48:05.373Z,3.37
2023-05-03T03:50:31.783Z,3.93
2023-05-03T03:52:58.173Z,3.47
2023-05-03T03:55:24.552Z,3.33
2023-05-03T03:57:50.920Z,3.40
2023-05-03T04:00:17.652Z,3.93
2023-05-03T04:02:44.104Z,3.20
2023-05-03T04:05:10.588Z,3.87
2023-05-03T04:07:36.967Z,3.70
2023-05-03T04:10:03.596Z,3.20
2023-05-03T04:12:30.320Z,3.20
2023-05-03T04:14:57.148Z,3.57
2023-05-03T04:17:23.539Z,3.87
2023-05-03T04:19:50.060Z,3.43
2023-05-03T04:22:16.421Z,3.23
2023-05-03T04:24:43.879Z,3.30
2023-05-03T04:27:10.309Z,3.70
2023-05-03T04:29:38.481Z,3.37
2023-05-03T04:32:06.694Z,3.17
2023-05-03T04:34:33.407Z,3.40
2023-05-03T04:37:00.578Z,3.30
2023-05-03T04:39:27.108Z,3.63
2023-05-03T04:41:53.509Z,3.50
2023-05-03T04:44:20.809Z,3.10
2023-05-03T04:46:48.745Z,3.60
2023-05-03T04:49:17.759Z,3.40
2023-05-03T04:51:44.136Z,3.40
2023-05-03T04:54:10.515Z,3.80
2023-05-03T04:56:36.877Z,3.40
2023-05-03T04:59:04.392Z,3.73
2023-05-03T05:01:30.930Z,4.00
2023-05-03T05:03:57.543Z,3.87
2023-05-03T05:06:24.149Z,3.53
2023-05-03T05:08:50.809Z,4.07
2023-05-03T05:11:17.275Z,3.70
2023-05-03T05:13:43.767Z,4.13
2023-05-03T05:16:10.131Z,3.93
2023-05-03T05:18:36.510Z,4.37
2023-05-03T05:21:03.414Z,3.73
2023-05-03T05:23:29.857Z,4.10
2023-05-03T05:26:00.454Z,4.30
2023-05-03T05:28:27.967Z,3.77
2023-05-03T05:30:54.527Z,3.73
2023-05-03T05:33:21.157Z,3.47
2023-05-03T05:35:48.717Z,3.37
2023-05-03T05:38:17.426Z,3.47
2023-05-03T05:40:44.313Z,3.40
2023-05-03T05:43:11.051Z,3.27
2023-05-03T05:45:38.411Z,2.97
2023-05-03T05:48:05.529Z,3.00
2023-05-03T05:50:32.331Z,3.13
2023-05-03T05:52:58.708Z,3.40
2023-05-03T05:55:25.083Z,3.20
2023-05-03T05:57:51.461Z,3.20
2023-05-03T06:00:19.028Z,2.93
2023-05-03T06:02:45.709Z,3.00
2023-05-03T06:05:12.268Z,2.67
2023-05-03T06:07:38.662Z,2.87
2023-05-03T06:10:05.669Z,2.83
2023-05-03T06:12:32.181Z,2.57
2023-05-03T06:15:02.858Z,2.87
2023-05-03T06:17:29.761Z,2.83
2023-05-03T06:19:56.323Z,2.90
2023-05-03T06:22:22.685Z,3.00
2023-05-03T06:24:49.135Z,2.67
2023-05-03T06:27:15.668Z,3.00
2023-05-03T06:29:44.382Z,2.87
2023-05-03T06:32:10.984Z,2.90
2023-05-03T06:34:37.704Z,2.47
2023-05-03T06:37:04.053Z,2.93
2023-05-03T06:39:31.085Z,2.73
2023-05-03T06:41:57.483Z,2.97
2023-05-03T06:44:23.874Z,2.63
2023-05-03T06:46:51.274Z,2.83
2023-05-03T06:49:17.679Z,2.80
2023-05-03T06:51:44.075Z,2.57
2023-05-03T06:54:10.439Z,3.23
2023-05-03T06:56:36.857Z,2.63
2023-05-03T06:59:03.642Z,2.80
2023-05-03T07:01:31.492Z,2.90
2023-05-03T07:03:58.333Z,2.80
2023-05-03T07:06:24.991Z,2.70
2023-05-03T07:08:52.487Z,3.10
2023-05-03T07:11:22.470Z,2.40
2023-05-03T07:13:48.821Z,2.53
2023-05-03T07:16:15.246Z,2.37
2023-05-03T07:18:41.738Z,2.40
2023-05-03T07:21:09.421Z,2.73
2023-05-03T07:23:36.162Z,2.57
2023-05-03T07:26:02.554Z,2.90
2023-05-03T07:28:28.998Z,2.83
2023-05-03T07:30:55.490Z,2.63
2023-05-03T07:33:22.055Z,2.43
2023-05-03T07:35:49.006Z,2.70
2023-05-03T07:38:15.373Z,2.80
2023-05-03T07:40:42.653Z,2.30
2023-05-03T07:43:12.176Z,2.60
2023-05-03T07:45:38.843Z,3.10
2023-05-03T07:48:06.509Z,2.73
2023-05-03T07:50:33.080Z,3.07
2023-05-03T07:52:59.505Z,2.90
2023-05-03T07:55:26.645Z,3.03
2023-05-03T07:57:58.322Z,3.13
2023-05-03T08:00:25.914Z,3.20
2023-05-03T08:02:52.438Z,3.30
2023-05-03T08:05:19.276Z,3.30
2023-05-03T08:07:45.824Z,3.00
2023-05-03T08:10:12.899Z,3.17
2023-05-03T08:12:39.300Z,2.77
2023-05-03T08:15:06.948Z,3.10
2023-05-03T08:17:40.663Z,2.50
2023-05-03T08:20:08.339Z,2.67
2023-05-03T08:22:36.642Z,2.60
2023-05-03T08:25:07.593Z,2.70
2023-05-03T08:27:34.436Z,2.80
2023-05-03T08:30:01.658Z,3.30
2023-05-03T08:32:28.440Z,2.97
2023-05-03T08:34:55.898Z,2.93
2023-05-03T08:37:23.376Z,2.80
2023-05-03T08:39:49.774Z,8.50
2023-05-03T08:42:16.297Z,3.83
2023-05-03T08:44:48.609Z,3.50
2023-05-03T08:47:19.448Z,3.00
2023-05-03T08:49:47.185Z,2.87
2023-05-03T08:52:16.549Z,3.27
2023-05-03T08:54:43.490Z,3.47
2023-05-03T08:57:16.536Z,3.40
2023-05-03T08:59:58.570Z,3.43
2023-05-03T09:02:24.993Z,3.20
2023-05-03T09:04:52.295Z,3.13
2023-05-03T09:07:20.321Z,3.80
2023-05-03T09:09:47.566Z,3.03
2023-05-03T09:12:36.804Z,2.73
2023-05-03T09:15:03.794Z,2.67
2023-05-03T09:17:31.341Z,2.67
2023-05-03T09:19:58.881Z,3.13
2023-05-03T09:22:31.063Z,3.33
2023-05-03T09:25:00.011Z,3.20
2023-05-03T09:27:27.490Z,2.57
2023-05-03T09:29:54.867Z,2.40
2023-05-03T09:32:25.599Z,3.00
2023-05-03T09:35:04.989Z,3.47
2023-05-03T09:37:40.337Z,3.10
2023-05-03T09:40:11.704Z,3.13
2023-05-03T09:42:38.142Z,3.43
2023-05-03T09:45:05.371Z,2.87
2023-05-03T09:47:35.653Z,2.90
2023-05-03T09:50:02.122Z,2.80
2023-05-03T09:52:29.215Z,3.10
2023-05-03T09:54:56.022Z,3.30
2023-05-03T09:57:22.534Z,2.90
2023-05-03T09:59:50.776Z,2.80
2023-05-03T10:02:17.680Z,2.80
2023-05-03T10:04:51.754Z,3.17
2023-05-03T10:07:23.093Z,2.87
2023-05-03T10:09:49.690Z,2.80
2023-05-03T10:12:18.699Z,3.10
2023-05-03T10:14:51.475Z,3.37
2023-05-03T10:17:46.910Z,5.90
2023-05-03T10:20:27.957Z,3.23
2023-05-03T10:23:03.204Z,3.73
2023-05-03T10:25:30.095Z,3.13
2023-05-03T10:28:03.771Z,3.20
2023-05-03T10:30:35.225Z,3.30
2023-05-03T10:33:14.043Z,2.47
2023-05-03T10:35:42.190Z,2.43
2023-05-03T10:38:15.894Z,2.77
2023-05-03T10:40:43.508Z,2.90
2023-05-03T10:43:28.983Z,2.93
2023-05-03T10:45:59.671Z,2.57
2023-05-03T10:48:28.353Z,2.40
2023-05-03T10:50:56.153Z,2.37
2023-05-03T10:53:31.260Z,2.97
2023-05-03T10:56:12.586Z,2.37
2023-05-03T10:58:43.909Z,2.40
2023-05-03T11:01:15.814Z,2.47
2023-05-03T11:03:54.591Z,2.33
2023-05-03T11:06:31.481Z,2.63
2023-05-03T11:08:58.294Z,2.77
2023-05-03T11:11:24.695Z,2.77
2023-05-03T11:13:51.952Z,2.70
2023-05-03T11:16:18.702Z,2.33
2023-05-03T11:18:45.466Z,2.97
2023-05-03T11:21:12.706Z,2.47
2023-05-03T11:23:39.386Z,2.50
2023-05-03T11:26:06.605Z,2.80
2023-05-03T11:28:33.169Z,2.30
2023-05-03T11:31:01.976Z,2.17
2023-05-03T11:33:29.482Z,2.30
2023-05-03T11:35:56.590Z,2.50
2023-05-03T11:38:23.015Z,2.67
2023-05-03T11:40:49.380Z,2.20
2023-05-03T11:43:15.848Z,2.40
2023-05-03T11:45:45.899Z,2.20
2023-05-03T11:48:13.644Z,2.40
2023-05-03T11:50:55.191Z,2.50
2023-05-03T11:53:26.360Z,2.50
2023-05-03T11:55:54.290Z,2.00
2023-05-03T11:58:26.390Z,2.13
2023-05-03T12:00:55.171Z,2.30
2023-05-03T12:03:30.805Z,2.20
2023-05-03T12:05:59.670Z,2.70
2023-05-03T12:08:31.559Z,2.53
2023-05-03T12:11:02.807Z,2.60
2023-05-03T12:13:39.603Z,2.30
2023-05-03T12:16:13.712Z,2.30
2023-05-03T12:18:57.908Z,2.30
2023-05-03T12:23:56.936Z,2.10
2023-05-03T12:26:25.612Z,2.37
2023-05-03T12:28:55.268Z,2.30
2023-05-03T12:31:23.290Z,2.40
2023-05-03T12:34:09.184Z,2.33
2023-05-03T12:36:37.823Z,2.55
2023-05-03T12:39:09.332Z,2.20
2023-05-03T12:44:09.855Z,2.60
2023-05-03T12:46:38.050Z,2.08
2023-05-03T12:49:07.607Z,2.67
2023-05-03T12:51:35.152Z,2.42
2023-05-03T12:54:02.498Z,2.78
2023-05-03T12:56:32.798Z,2.40
2023-05-03T12:59:23.233Z,2.30
2023-05-03T13:03:10.045Z,2.58
2023-05-03T13:04:56.936Z,2.58
2023-05-03T13:07:27.641Z,2.70
2023-05-03T13:12:25.640Z,2.53
2023-05-03T13:14:53.632Z,2.63
2023-05-03T13:17:22.406Z,2.38
2023-05-03T13:19:50.124Z,2.30
2023-05-03T13:22:16.881Z,2.60
2023-05-03T13:24:45.158Z,2.60
2023-05-03T13:27:12.162Z,2.55
2023-05-03T13:29:39.647Z,2.22
2023-05-03T13:32:06.846Z,2.30
2023-05-03T13:34:33.749Z,2.40
2023-05-03T13:37:01.731Z,2.58
2023-05-03T13:39:28.123Z,2.60
2023-05-03T13:41:54.484Z,2.30
2023-05-03T13:44:25.047Z,2.47
2023-05-03T13:46:52.316Z,2.50
2023-05-03T13:49:18.739Z,2.47
2023-05-03T13:51:45.171Z,2.58
2023-05-03T13:54:11.557Z,2.72
2023-05-03T13:56:37.937Z,2.90
2023-05-03T13:59:07.761Z,2.53
2023-05-03T14:01:34.231Z,2.65
2023-05-03T14:04:00.831Z,2.92
2023-05-03T14:06:27.558Z,2.35
2023-05-03T14:08:54.737Z,2.50
2023-05-03T14:11:21.745Z,2.58
2023-05-03T14:16:35.715Z,2.70
2023-05-03T14:19:06.143Z,2.55
2023-05-03T14:21:32.801Z,3.03
2023-05-03T14:23:59.180Z,2.80
2023-05-03T14:26:26.645Z,2.65
2023-05-03T14:28:53.013Z,2.58
2023-05-03T14:31:19.408Z,2.55
2023-05-03T14:33:45.758Z,2.65
2023-05-03T14:36:12.235Z,2.38
2023-05-03T14:38:38.618Z,2.50
2023-05-03T14:41:05.155Z,2.97
2023-05-03T14:43:32.302Z,2.60
2023-05-03T14:45:58.675Z,3.28
2023-05-03T14:48:25.036Z,4.38
2023-05-03T14:50:51.863Z,3.05
2023-05-03T14:53:18.531Z,3.08
2023-05-03T14:55:45.994Z,2.53
2023-05-03T15:00:42.450Z,2.40
2023-05-03T15:03:12.888Z,3.03
2023-05-03T15:05:44.274Z,2.30
2023-05-03T15:08:10.774Z,2.72
2023-05-03T15:10:40.684Z,2.67
2023-05-03T15:13:07.205Z,2.78
2023-05-03T15:15:33.699Z,2.40
2023-05-03T15:18:00.104Z,2.72
2023-05-03T15:20:27.104Z,2.20
2023-05-03T15:22:53.465Z,2.63
2023-05-03T15:25:19.850Z,2.53
2023-05-03T15:27:46.351Z,2.60
2023-05-03T15:30:14.707Z,3.10
2023-05-03T15:32:41.105Z,2.65
2023-05-03T15:35:07.653Z,2.28
2023-05-03T15:37:36.962Z,2.40
2023-05-03T15:40:05.376Z,2.35
2023-05-03T15:42:31.990Z,2.67
2023-05-03T15:44:58.455Z,2.40
2023-05-03T15:47:24.809Z,2.53
2023-05-03T15:49:51.186Z,2.40
2023-05-03T15:52:17.547Z,2.55
2023-05-03T15:54:43.930Z,2.55
2023-05-03T15:57:10.517Z,2.67
2023-05-03T15:59:36.988Z,2.70
2023-05-03T16:02:03.882Z,2.60
2023-05-03T16:04:30.417Z,2.63
2023-05-03T16:06:57.946Z,2.63
2023-05-03T16:09:24.376Z,2.60
2023-05-03T16:11:50.763Z,2.40
2023-05-03T16:14:17.138Z,2.53
2023-05-03T16:16:45.660Z,2.67
2023-05-03T16:19:12.814Z,2.00
2023-05-03T16:21:39.176Z,2.30
2023-05-03T16:24:05.758Z,2.33
2023-05-03T16:26:34.370Z,4.28
2023-05-03T16:29:01.047Z,2.70
2023-05-03T16:31:30.755Z,2.50
2023-05-03T16:33:57.260Z,2.50
2023-05-03T16:36:23.976Z,2.35
2023-05-03T16:38:50.421Z,2.30
2023-05-03T16:41:16.788Z,2.50
2023-05-03T16:43:43.208Z,2.40
2023-05-03T16:46:09.638Z,2.30
2023-05-03T16:48:36.416Z,2.53
2023-05-03T16:51:02.813Z,2.45
2023-05-03T16:53:29.189Z,2.50
2023-05-03T16:55:55.604Z,2.47
2023-05-03T16:58:22.031Z,2.20
2023-05-03T17:00:48.472Z,2.85
2023-05-03T17:03:14.960Z,2.45
2023-05-03T17:05:42.053Z,2.40
2023-05-03T17:08:08.488Z,2.38
2023-05-03T17:10:41.574Z,2.47
2023-05-03T17:13:09.288Z,2.53
2023-05-03T17:15:36.914Z,2.33
2023-05-03T17:18:04.861Z,2.67
2023-05-03T17:20:31.610Z,2.45
2023-05-03T17:22:58.478Z,2.50
2023-05-03T17:25:24.862Z,2.05
2023-05-03T17:27:52.387Z,2.58
2023-05-03T17:30:21.201Z,2.28
2023-05-03T17:32:47.958Z,2.55
2023-05-03T17:35:14.403Z,2.70
2023-05-03T17:37:40.942Z,2.40
2023-05-03T17:40:07.895Z,2.60
2023-05-03T17:42:34.836Z,2.63
2023-05-03T17:45:01.690Z,2.53
2023-05-03T17:47:28.759Z,2.38
2023-05-03T17:49:55.216Z,2.50
2023-05-03T17:52:22.010Z,2.50
2023-05-03T17:54:50.448Z,2.78
2023-05-03T17:57:17.020Z,3.15
2023-05-03T17:59:43.434Z,2.55
2023-05-03T18:02:10.019Z,2.72
2023-05-03T18:04:36.571Z,2.85
2023-05-03T18:07:03.022Z,3.00
2023-05-03T18:09:30.694Z,2.67
2023-05-03T18:11:59.525Z,3.17
2023-05-03T18:14:25.881Z,2.67
2023-05-03T18:16:55.120Z,2.40
2023-05-03T18:19:21.694Z,2.67
2023-05-03T18:21:48.079Z,2.53
2023-05-03T18:24:15.686Z,2.88
2023-05-03T18:26:42.273Z,2.95
2023-05-03T18:29:08.708Z,3.03
2023-05-03T18:31:35.131Z,2.40
2023-05-03T18:34:01.527Z,2.78
2023-05-03T18:36:27.892Z,2.70
2023-05-03T18:38:54.388Z,2.30
2023-05-03T18:41:20.814Z,2.75
2023-05-03T18:43:47.796Z,3.70
2023-05-03T18:46:18.651Z,2.78
2023-05-03T18:48:45.942Z,2.72
2023-05-03T18:51:12.333Z,2.60
2023-05-03T18:53:38.697Z,2.83
2023-05-03T18:56:05.109Z,2.88
2023-05-03T18:58:31.967Z,2.72
2023-05-03T19:01:00.151Z,3.67
2023-05-03T19:03:29.327Z,3.28
2023-05-03T19:05:59.596Z,3.50
2023-05-03T19:08:25.983Z,3.28
2023-05-03T19:10:52.346Z,3.38
2023-05-03T19:13:19.343Z,5.03
2023-05-03T19:15:45.798Z,4.13
2023-05-03T19:18:14.844Z,3.97
2023-05-03T19:20:43.164Z,3.67
2023-05-03T19:23:09.534Z,2.90
2023-05-03T19:25:35.974Z,3.60
2023-05-03T19:28:04.246Z,3.35
2023-05-03T19:30:30.641Z,4.15
2023-05-03T19:32:57.047Z,2.85
2023-05-03T19:35:23.424Z,3.50
2023-05-03T19:37:49.816Z,3.00
2023-05-03T19:40:16.191Z,3.60
2023-05-03T19:42:42.534Z,3.10
2023-05-03T19:45:09.898Z,3.50
2023-05-03T19:47:36.335Z,3.40
2023-05-03T19:50:02.950Z,3.37
2023-05-03T19:52:29.486Z,3.20
2023-05-03T19:54:57.209Z,3.33
2023-05-03T19:57:23.811Z,2.97
2023-05-03T19:59:50.791Z,3.30
2023-05-03T20:02:18.468Z,3.77
2023-05-03T20:04:44.882Z,3.90
2023-05-03T20:07:11.271Z,4.03
2023-05-03T20:09:37.677Z,5.60
2023-05-03T20:12:04.341Z,3.60
2023-05-03T20:14:30.714Z,6.23
2023-05-03T20:16:57.191Z,5.77
2023-05-03T20:19:25.118Z,5.97
2023-05-03T20:21:51.482Z,4.47
2023-05-03T20:24:21.935Z,4.60
2023-05-03T20:26:48.281Z,3.33
2023-05-03T20:29:14.951Z,3.60
2023-05-03T20:31:41.463Z,4.03
2023-05-03T20:34:08.548Z,3.53
2023-05-03T20:36:34.915Z,3.77
2023-05-03T20:39:01.322Z,3.50
2023-05-03T20:41:27.663Z,3.43
2023-05-03T20:43:54.918Z,3.33
2023-05-03T20:46:21.372Z,3.63
2023-05-03T20:48:47.868Z,3.50
2023-05-03T20:51:14.785Z,3.67
2023-05-03T20:53:41.248Z,4.13
2023-05-03T20:56:07.907Z,4.20
2023-05-03T20:58:34.445Z,4.10
2023-05-03T21:01:05.238Z,3.90
2023-05-03T21:03:32.123Z,3.70
2023-05-03T21:05:58.676Z,4.10
2023-05-03T21:08:25.245Z,4.53
2023-05-03T21:10:52.657Z,4.63
2023-05-03T21:13:19.123Z,4.87
2023-05-03T21:15:45.585Z,3.63
2023-05-03T21:18:11.981Z,4.53
2023-05-03T21:20:38.760Z,4.93
2023-05-03T21:23:05.811Z,4.23
2023-05-03T21:25:32.207Z,4.37
2023-05-03T21:27:58.592Z,4.53
2023-05-03T21:30:24.985Z,4.20
2023-05-03T21:32:51.437Z,4.30
2023-05-03T21:35:18.703Z,4.53
2023-05-03T21:37:46.544Z,4.40
2023-05-03T21:40:15.032Z,4.33
2023-05-03T21:42:44.519Z,4.67
2023-05-03T21:45:12.189Z,4.67
2023-05-03T21:47:38.621Z,4.50
2023-05-03T21:50:06.249Z,4.83
2023-05-03T21:52:33.609Z,4.80
2023-05-03T21:55:00.020Z,4.93
2023-05-03T21:57:26.586Z,5.00
2023-05-03T21:59:54.130Z,5.03
2023-05-03T22:02:21.727Z,5.07
2023-05-03T22:04:48.732Z,5.20
2023-05-03T22:07:15.469Z,5.33
2023-05-03T22:09:45.871Z,5.13
2023-05-03T22:12:23.531Z,5.20
2023-05-03T22:14:50.840Z,4.97
2023-05-03T22:17:17.365Z,5.47
2023-05-03T22:19:43.764Z,5.40
2023-05-03T22:22:10.165Z,5.33
2023-05-03T22:24:37.632Z,4.93
2023-05-03T22:27:04.046Z,4.60
2023-05-03T22:29:30.624Z,4.67
2023-05-03T22:31:57.243Z,4.83
2023-05-03T22:34:23.725Z,4.47
2023-05-03T22:36:50.137Z,4.50
2023-05-03T22:39:17.370Z,4.23
2023-05-03T22:41:44.126Z,4.37
2023-05-03T22:44:10.616Z,4.43
2023-05-03T22:46:37.074Z,4.00
2023-05-03T22:49:03.862Z,3.90
2023-05-03T22:51:31.206Z,4.00
2023-05-03T22:53:58.049Z,4.00
2023-05-03T22:56:24.469Z,4.20
2023-05-03T22:58:50.837Z,3.97
2023-05-03T23:01:17.305Z,4.00
2023-05-03T23:03:43.896Z,4.00
2023-05-03T23:06:10.685Z,4.10
2023-05-03T23:08:37.084Z,4.03
2023-05-03T23:11:03.492Z,4.20
2023-05-03T23:13:29.892Z,4.03
2023-05-03T23:15:56.976Z,4.27
2023-05-03T23:18:23.607Z,4.40
2023-05-03T23:20:49.993Z,4.40
2023-05-03T23:23:16.452Z,4.57
2023-05-03T23:25:42.853Z,4.37
2023-05-03T23:28:09.437Z,4.13
2023-05-03T23:30:36.326Z,4.43
2023-05-03T23:33:03.228Z,4.40
2023-05-03T23:35:30.316Z,4.77
2023-05-03T23:37:56.800Z,4.70
2023-05-03T23:40:23.826Z,4.40
2023-05-03T23:42:50.215Z,4.27
2023-05-03T23:45:16.624Z,4.20
2023-05-03T23:47:43.042Z,4.70
2023-05-03T23:50:10.240Z,5.07
2023-05-03T23:52:37.044Z,4.23
2023-05-03T23:55:06.476Z,4.50
2023-05-03T23:57:32.822Z,4.73
2023-05-03T23:59:59.195Z,3.90
